Weather observations for the past three days for
Wall Blake Airport
Imperial (Metric)
Date Time (ast) Wind (mph) Vis. (mi.) Weather Sky Cond. Temperature (ºF) Relative Humidity Wind Chill (°F) Heat Index (°F) Pressure Precipitation (in)
Air Dwpt 6 hour altimeter (in) sea level (mb) 1 hr 3 hr 6 hr
Max. Min.
02 16:00 E 14 0.00 A Few Clouds FEW019 82.4 71.6 70% 87 0 0.0
02 15:00 E 14 0.00 A Few Clouds FEW021 82.4 71.6 70% 87 0 0.0
02 14:00 SE 14 0.00 A Few Clouds FEW021 84.2 71.6 66% 90 0 0.0
02 13:00 E 16 0.00 A Few Clouds FEW020 82.4 73.4 74% 88 0 0.0
02 12:00 E 14 0.00 A Few Clouds FEW020 84.2 71.6 66% 90 0 0.0
02 11:00 E 15 0.00 A Few Clouds FEW020 84.2 71.6 66% 90 0 0.0
02 10:00 E 14 0.00 Partly Cloudy SCT019 82.4 71.6 70% 87 0 0.0
02 09:00 E 12 0.00 A Few Clouds FEW018 78.8 77 94% 83 0 0.0
02 08:00 E 12 0.00 Partly Cloudy SCT018 80.6 71.6 74% 85 0 0.0
02 07:00 E 7 0.00 Partly Cloudy SCT018 77 73.4 89% 78 0 0.0
01 19:00 E 7 0.00 A Few Clouds FEW018 80.6 71.6 74% 85 0 0.0
01 18:00 E 8 0.00 A Few Clouds FEW018 80.6 71.6 74% 85 0 0.0
01 17:00 E 8 0.00 A Few Clouds FEW019 80.6 71.6 74% 85 0 0.0
01 16:00 E 9 0.00 A Few Clouds FEW020 80.6 71.6 74% 85 0 0.0
01 15:00 SE 10 0.00 A Few Clouds FEW020 82.4 71.6 70% 87 0 0.0
01 14:00 E 10 0.00 A Few Clouds FEW020 82.4 71.6 70% 87 0 0.0
01 13:00 SE 10 0.00 A Few Clouds FEW019 82.4 71.6 70% 87 0 0.0
01 12:00 E 10 0.00 A Few Clouds FEW019 82.4 71.6 70% 87 0 0.0
01 11:00 E 10 0.00 A Few Clouds FEW019 82.4 71.6 70% 87 0 0.0
01 10:00 SE 12 0.00 A Few Clouds FEW019 82.4 71.6 70% 87 0 0.0
01 09:00 SE 10 0.00 A Few Clouds FEW018 80.6 73.4 79% 85 0 0.0
01 08:00 SE 7 0.00 A Few Clouds FEW018 80.6 73.4 79% 85 0 0.0
01 07:00 SE 9 0.00 Partly Cloudy FEW019 SCT034 77 77 100% 78 0 0.0
30 19:00 E 7 0.00 A Few Clouds FEW018 80.6 71.6 74% 85 0 0.0
30 18:00 E 8 0.00 A Few Clouds FEW018 80.6 73.4 79% 85 0 0.0
30 17:00 SE 12 0.00 A Few Clouds FEW019 82.4 73.4 74% 88 0 0.0
30 16:00 SE 12 0.00 A Few Clouds FEW019 82.4 71.6 70% 87 0 0.0
30 15:00 SE 12 0.00 A Few Clouds FEW019 82.4 71.6 70% 87 0 0.0
30 14:00 SE 9 0.00 A Few Clouds FEW019 82.4 71.6 70% 87 0 0.0
30 13:00 SE 9 0.00 A Few Clouds FEW019 82.4 73.4 74% 88 0 0.0
30 12:00 SE 12 0.00 A Few Clouds FEW019 82.4 71.6 70% 87 0 0.0
30 11:00 SE 10 0.00 A Few Clouds FEW020 82.4 71.6 70% 87 0 0.0
30 10:00 SE 12 0.00 A Few Clouds FEW020 82.4 71.6 70% 87 0 0.0
30 09:00 SE 9 0.00 Partly Cloudy SCT019 80.6 71.6 74% 85 0 0.0
30 08:00 SE 10 0.00 Partly Cloudy SCT019 80.6 71.6 74% 85 0 0.0
30 07:00 SE 9 0.00 A Few Clouds FEW019 80.6 71.6 74% 85 0 0.0
29 19:00 E 7 0.00 A Few Clouds FEW018 80.6 71.6 74% 85 0 0.0
29 18:00 E 7 0.00 A Few Clouds FEW020 80.6 71.6 74% 85 0 0.0
29 17:00 E 8 0.00 A Few Clouds FEW019 82.4 71.6 70% 87 0 0.0
Date Time (ast) Wind (mph) Vis. (mi.) Weather Sky Cond. Air Dwpt Max. Min. Relative Humidity Wind Chill (°F) Heat Index (°F) altimeter (in) sea level (mb) 1 hr 3 hr 6 hr
6 hour
Temperature (ºF) Pressure Precipitation (in)